sensor_id;sensor_type;location;lat;lon;timestamp;temperature;humidity
69589;SHT31;56792;50.644;17.984;2022-10-16T00:00:43;13.83;82.77
69589;SHT31;56792;50.644;17.984;2022-10-16T00:03:15;13.84;82.75
69589;SHT31;56792;50.644;17.984;2022-10-16T00:05:47;13.84;82.79
69589;SHT31;56792;50.644;17.984;2022-10-16T00:08:20;13.83;82.79
69589;SHT31;56792;50.644;17.984;2022-10-16T00:10:52;13.83;82.79
69589;SHT31;56792;50.644;17.984;2022-10-16T00:13:28;13.81;82.74
69589;SHT31;56792;50.644;17.984;2022-10-16T00:16:02;13.81;82.65
69589;SHT31;56792;50.644;17.984;2022-10-16T00:18:36;13.79;82.76
69589;SHT31;56792;50.644;17.984;2022-10-16T00:21:09;13.78;82.82
69589;SHT31;56792;50.644;17.984;2022-10-16T00:23:44;13.77;82.75
69589;SHT31;56792;50.644;17.984;2022-10-16T00:26:18;13.77;82.87
69589;SHT31;56792;50.644;17.984;2022-10-16T00:28:51;13.76;82.95
69589;SHT31;56792;50.644;17.984;2022-10-16T00:31:23;13.75;82.88
69589;SHT31;56792;50.644;17.984;2022-10-16T00:33:56;13.73;82.88
69589;SHT31;56792;50.644;17.984;2022-10-16T00:36:29;13.74;82.97
69589;SHT31;56792;50.644;17.984;2022-10-16T00:39:01;13.74;82.84
69589;SHT31;56792;50.644;17.984;2022-10-16T00:41:33;13.73;82.86
69589;SHT31;56792;50.644;17.984;2022-10-16T00:47:13;13.72;83.09
69589;SHT31;56792;50.644;17.984;2022-10-16T00:49:53;13.71;82.91
69589;SHT31;56792;50.644;17.984;2022-10-16T00:52:33;13.72;82.93
69589;SHT31;56792;50.644;17.984;2022-10-16T00:55:07;13.73;83.01
69589;SHT31;56792;50.644;17.984;2022-10-16T00:57:41;13.73;83.07
69589;SHT31;56792;50.644;17.984;2022-10-16T01:00:16;13.77;83.23
69589;SHT31;56792;50.644;17.984;2022-10-16T01:02:55;13.78;83.22
69589;SHT31;56792;50.644;17.984;2022-10-16T01:05:30;13.80;83.16
69589;SHT31;56792;50.644;17.984;2022-10-16T01:08:17;13.82;83.13
69589;SHT31;56792;50.644;17.984;2022-10-16T01:11:02;13.84;83.16
69589;SHT31;56792;50.644;17.984;2022-10-16T01:13:47;13.87;83.21
69589;SHT31;56792;50.644;17.984;2022-10-16T01:16:28;13.88;83.05
69589;SHT31;56792;50.644;17.984;2022-10-16T01:19:11;13.91;83.02
69589;SHT31;56792;50.644;17.984;2022-10-16T01:21:53;13.94;83.19
69589;SHT31;56792;50.644;17.984;2022-10-16T01:24:31;13.96;83.10
69589;SHT31;56792;50.644;17.984;2022-10-16T01:27:10;13.98;83.08
69589;SHT31;56792;50.644;17.984;2022-10-16T01:29:48;14.00;83.22
69589;SHT31;56792;50.644;17.984;2022-10-16T01:32:28;14.03;83.02
69589;SHT31;56792;50.644;17.984;2022-10-16T01:35:09;14.04;82.95
69589;SHT31;56792;50.644;17.984;2022-10-16T01:37:51;14.05;82.98
69589;SHT31;56792;50.644;17.984;2022-10-16T01:40:31;14.05;82.93
69589;SHT31;56792;50.644;17.984;2022-10-16T01:43:08;14.06;82.84
69589;SHT31;56792;50.644;17.984;2022-10-16T01:45:44;14.08;82.91
69589;SHT31;56792;50.644;17.984;2022-10-16T01:48:17;14.08;82.88
69589;SHT31;56792;50.644;17.984;2022-10-16T01:50:54;14.09;82.86
69589;SHT31;56792;50.644;17.984;2022-10-16T01:53:33;14.11;82.94
69589;SHT31;56792;50.644;17.984;2022-10-16T01:56:07;14.12;82.84
69589;SHT31;56792;50.644;17.984;2022-10-16T01:58:43;14.13;82.73
69589;SHT31;56792;50.644;17.984;2022-10-16T02:01:21;14.14;82.73
69589;SHT31;56792;50.644;17.984;2022-10-16T02:04:00;14.14;82.69
69589;SHT31;56792;50.644;17.984;2022-10-16T02:06:39;14.14;82.60
69589;SHT31;56792;50.644;17.984;2022-10-16T02:09:11;14.14;82.59
69589;SHT31;56792;50.644;17.984;2022-10-16T02:11:43;14.13;82.58
69589;SHT31;56792;50.644;17.984;2022-10-16T02:14:16;14.11;82.61
69589;SHT31;56792;50.644;17.984;2022-10-16T02:16:51;14.10;82.57
69589;SHT31;56792;50.644;17.984;2022-10-16T02:19:23;14.10;82.56
69589;SHT31;56792;50.644;17.984;2022-10-16T02:21:56;14.09;82.51
69589;SHT31;56792;50.644;17.984;2022-10-16T02:24:34;14.07;82.51
69589;SHT31;56792;50.644;17.984;2022-10-16T02:27:17;14.05;82.53
69589;SHT31;56792;50.644;17.984;2022-10-16T02:29:58;14.03;82.57
69589;SHT31;56792;50.644;17.984;2022-10-16T02:32:38;14.02;82.50
69589;SHT31;56792;50.644;17.984;2022-10-16T02:35:13;14.02;82.50
69589;SHT31;56792;50.644;17.984;2022-10-16T02:37:49;14.03;82.55
69589;SHT31;56792;50.644;17.984;2022-10-16T02:40:23;14.04;82.56
69589;SHT31;56792;50.644;17.984;2022-10-16T02:42:56;14.04;82.52
69589;SHT31;56792;50.644;17.984;2022-10-16T02:45:31;14.07;82.63
69589;SHT31;56792;50.644;17.984;2022-10-16T02:48:03;14.09;82.73
69589;SHT31;56792;50.644;17.984;2022-10-16T02:50:36;14.10;82.71
69589;SHT31;56792;50.644;17.984;2022-10-16T02:53:08;14.13;82.76
69589;SHT31;56792;50.644;17.984;2022-10-16T02:55:40;14.16;82.72
69589;SHT31;56792;50.644;17.984;2022-10-16T02:58:11;14.20;82.65
69589;SHT31;56792;50.644;17.984;2022-10-16T03:00:43;14.22;82.50
69589;SHT31;56792;50.644;17.984;2022-10-16T03:03:15;14.24;82.52
69589;SHT31;56792;50.644;17.984;2022-10-16T03:05:48;14.28;82.49
69589;SHT31;56792;50.644;17.984;2022-10-16T03:08:19;14.31;82.39
69589;SHT31;56792;50.644;17.984;2022-10-16T03:10:52;14.34;82.36
69589;SHT31;56792;50.644;17.984;2022-10-16T03:13:23;14.37;82.34
69589;SHT31;56792;50.644;17.984;2022-10-16T03:15:55;14.39;82.38
69589;SHT31;56792;50.644;17.984;2022-10-16T03:18:27;14.42;82.29
69589;SHT31;56792;50.644;17.984;2022-10-16T03:20:59;14.45;82.18
69589;SHT31;56792;50.644;17.984;2022-10-16T03:23:31;14.47;82.20
69589;SHT31;56792;50.644;17.984;2022-10-16T03:26:03;14.48;82.09
69589;SHT31;56792;50.644;17.984;2022-10-16T03:28:35;14.48;82.17
69589;SHT31;56792;50.644;17.984;2022-10-16T03:31:07;14.48;82.08
69589;SHT31;56792;50.644;17.984;2022-10-16T03:33:39;14.47;82.13
69589;SHT31;56792;50.644;17.984;2022-10-16T03:36:11;14.45;82.14
69589;SHT31;56792;50.644;17.984;2022-10-16T03:38:43;14.42;82.20
69589;SHT31;56792;50.644;17.984;2022-10-16T03:41:15;14.41;82.21
69589;SHT31;56792;50.644;17.984;2022-10-16T03:43:47;14.38;82.20
69589;SHT31;56792;50.644;17.984;2022-10-16T03:46:19;14.36;82.14
69589;SHT31;56792;50.644;17.984;2022-10-16T03:48:50;14.33;82.18
69589;SHT31;56792;50.644;17.984;2022-10-16T03:51:22;14.31;82.10
69589;SHT31;56792;50.644;17.984;2022-10-16T03:53:54;14.27;82.13
69589;SHT31;56792;50.644;17.984;2022-10-16T03:56:26;14.24;82.12
69589;SHT31;56792;50.644;17.984;2022-10-16T03:58:58;14.22;82.24
69589;SHT31;56792;50.644;17.984;2022-10-16T04:01:30;14.19;82.22
69589;SHT31;56792;50.644;17.984;2022-10-16T04:04:02;14.18;82.19
69589;SHT31;56792;50.644;17.984;2022-10-16T04:06:34;14.17;82.12
69589;SHT31;56792;50.644;17.984;2022-10-16T04:09:06;14.15;82.23
69589;SHT31;56792;50.644;17.984;2022-10-16T04:11:38;14.13;82.31
69589;SHT31;56792;50.644;17.984;2022-10-16T04:14:10;14.13;82.34
69589;SHT31;56792;50.644;17.984;2022-10-16T04:16:44;14.12;82.40
69589;SHT31;56792;50.644;17.984;2022-10-16T04:19:16;14.12;82.31
69589;SHT31;56792;50.644;17.984;2022-10-16T04:21:48;14.09;82.38
69589;SHT31;56792;50.644;17.984;2022-10-16T04:24:20;14.09;82.56
69589;SHT31;56792;50.644;17.984;2022-10-16T04:26:51;14.10;82.56
69589;SHT31;56792;50.644;17.984;2022-10-16T04:29:24;14.09;82.55
69589;SHT31;56792;50.644;17.984;2022-10-16T04:31:56;14.08;82.47
69589;SHT31;56792;50.644;17.984;2022-10-16T04:34:28;14.06;82.48
69589;SHT31;56792;50.644;17.984;2022-10-16T04:36:59;14.04;82.46
69589;SHT31;56792;50.644;17.984;2022-10-16T04:39:31;14.05;82.42
69589;SHT31;56792;50.644;17.984;2022-10-16T04:42:03;14.06;82.42
69589;SHT31;56792;50.644;17.984;2022-10-16T04:44:35;14.05;82.37
69589;SHT31;56792;50.644;17.984;2022-10-16T04:47:07;14.03;82.49
69589;SHT31;56792;50.644;17.984;2022-10-16T04:49:39;14.04;82.45
69589;SHT31;56792;50.644;17.984;2022-10-16T04:52:11;14.04;82.40
69589;SHT31;56792;50.644;17.984;2022-10-16T04:54:44;14.04;82.44
69589;SHT31;56792;50.644;17.984;2022-10-16T04:57:17;14.04;82.46
69589;SHT31;56792;50.644;17.984;2022-10-16T04:59:49;14.04;82.33
69589;SHT31;56792;50.644;17.984;2022-10-16T05:02:21;14.05;82.42
69589;SHT31;56792;50.644;17.984;2022-10-16T05:04:53;14.06;82.43
69589;SHT31;56792;50.644;17.984;2022-10-16T05:07:25;14.07;82.34
69589;SHT31;56792;50.644;17.984;2022-10-16T05:09:57;14.06;82.30
69589;SHT31;56792;50.644;17.984;2022-10-16T05:12:29;14.07;82.33
69589;SHT31;56792;50.644;17.984;2022-10-16T05:15:03;14.08;82.22
69589;SHT31;56792;50.644;17.984;2022-10-16T05:17:37;14.12;82.16
69589;SHT31;56792;50.644;17.984;2022-10-16T05:20:10;14.14;82.10
69589;SHT31;56792;50.644;17.984;2022-10-16T05:22:42;14.17;82.01
69589;SHT31;56792;50.644;17.984;2022-10-16T05:25:14;14.18;81.91
69589;SHT31;56792;50.644;17.984;2022-10-16T05:27:48;14.20;81.90
69589;SHT31;56792;50.644;17.984;2022-10-16T05:30:20;14.20;81.83
69589;SHT31;56792;50.644;17.984;2022-10-16T05:32:52;14.22;81.81
69589;SHT31;56792;50.644;17.984;2022-10-16T05:35:24;14.22;81.70
69589;SHT31;56792;50.644;17.984;2022-10-16T05:37:56;14.24;81.67
69589;SHT31;56792;50.644;17.984;2022-10-16T05:40:28;14.25;81.69
69589;SHT31;56792;50.644;17.984;2022-10-16T05:43:00;14.26;81.65
69589;SHT31;56792;50.644;17.984;2022-10-16T05:45:32;14.27;81.65
69589;SHT31;56792;50.644;17.984;2022-10-16T05:48:05;14.31;81.62
69589;SHT31;56792;50.644;17.984;2022-10-16T05:50:37;14.33;81.54
69589;SHT31;56792;50.644;17.984;2022-10-16T05:53:09;14.36;81.50
69589;SHT31;56792;50.644;17.984;2022-10-16T05:55:41;14.38;81.51
69589;SHT31;56792;50.644;17.984;2022-10-16T05:58:19;14.40;81.62
69589;SHT31;56792;50.644;17.984;2022-10-16T06:00:55;14.42;81.68
69589;SHT31;56792;50.644;17.984;2022-10-16T06:03:30;14.44;81.65
69589;SHT31;56792;50.644;17.984;2022-10-16T06:06:08;14.46;81.71
69589;SHT31;56792;50.644;17.984;2022-10-16T06:08:42;14.49;81.71
69589;SHT31;56792;50.644;17.984;2022-10-16T06:11:17;14.51;81.63
69589;SHT31;56792;50.644;17.984;2022-10-16T06:13:52;14.54;81.55
69589;SHT31;56792;50.644;17.984;2022-10-16T06:16:27;14.58;81.50
69589;SHT31;56792;50.644;17.984;2022-10-16T06:18:59;14.60;81.47
69589;SHT31;56792;50.644;17.984;2022-10-16T06:21:33;14.64;81.45
69589;SHT31;56792;50.644;17.984;2022-10-16T06:24:05;14.66;81.43
69589;SHT31;56792;50.644;17.984;2022-10-16T06:26:37;14.69;81.35
69589;SHT31;56792;50.644;17.984;2022-10-16T06:29:09;14.73;81.31
69589;SHT31;56792;50.644;17.984;2022-10-16T06:31:42;14.76;81.27
69589;SHT31;56792;50.644;17.984;2022-10-16T06:34:14;14.77;81.21
69589;SHT31;56792;50.644;17.984;2022-10-16T06:36:46;14.81;81.12
69589;SHT31;56792;50.644;17.984;2022-10-16T06:39:18;14.85;81.02
69589;SHT31;56792;50.644;17.984;2022-10-16T06:41:50;14.86;80.92
69589;SHT31;56792;50.644;17.984;2022-10-16T06:44:25;14.88;80.87
69589;SHT31;56792;50.644;17.984;2022-10-16T06:46:57;14.90;80.76
69589;SHT31;56792;50.644;17.984;2022-10-16T06:49:30;14.92;80.69
69589;SHT31;56792;50.644;17.984;2022-10-16T06:52:02;14.94;80.61
69589;SHT31;56792;50.644;17.984;2022-10-16T06:54:35;14.97;80.55
69589;SHT31;56792;50.644;17.984;2022-10-16T06:57:07;14.97;80.58
69589;SHT31;56792;50.644;17.984;2022-10-16T06:59:39;15.00;80.50
69589;SHT31;56792;50.644;17.984;2022-10-16T07:02:11;15.03;80.41
69589;SHT31;56792;50.644;17.984;2022-10-16T07:04:44;15.07;80.39
69589;SHT31;56792;50.644;17.984;2022-10-16T07:07:17;15.14;80.28
69589;SHT31;56792;50.644;17.984;2022-10-16T07:09:51;15.21;80.18
69589;SHT31;56792;50.644;17.984;2022-10-16T07:12:23;15.25;80.06
69589;SHT31;56792;50.644;17.984;2022-10-16T07:14:57;15.28;79.95
69589;SHT31;56792;50.644;17.984;2022-10-16T07:17:29;15.32;79.89
69589;SHT31;56792;50.644;17.984;2022-10-16T07:20:03;15.36;79.80
69589;SHT31;56792;50.644;17.984;2022-10-16T07:22:37;15.40;79.75
69589;SHT31;56792;50.644;17.984;2022-10-16T07:25:09;15.44;79.58
69589;SHT31;56792;50.644;17.984;2022-10-16T07:27:42;15.49;79.38
69589;SHT31;56792;50.644;17.984;2022-10-16T07:30:16;15.53;79.30
69589;SHT31;56792;50.644;17.984;2022-10-16T07:32:48;15.59;79.14
69589;SHT31;56792;50.644;17.984;2022-10-16T07:35:20;15.62;79.03
69589;SHT31;56792;50.644;17.984;2022-10-16T07:37:52;15.65;78.93
69589;SHT31;56792;50.644;17.984;2022-10-16T07:40:24;15.68;78.85
69589;SHT31;56792;50.644;17.984;2022-10-16T07:42:57;15.73;78.69
69589;SHT31;56792;50.644;17.984;2022-10-16T07:45:32;15.78;78.50
69589;SHT31;56792;50.644;17.984;2022-10-16T07:48:04;15.84;78.33
69589;SHT31;56792;50.644;17.984;2022-10-16T07:50:36;15.91;78.12
69589;SHT31;56792;50.644;17.984;2022-10-16T07:53:09;15.99;77.93
69589;SHT31;56792;50.644;17.984;2022-10-16T07:55:42;16.10;77.70
69589;SHT31;56792;50.644;17.984;2022-10-16T07:58:14;16.20;77.61
69589;SHT31;56792;50.644;17.984;2022-10-16T08:00:46;16.31;77.08
69589;SHT31;56792;50.644;17.984;2022-10-16T08:03:18;16.39;76.94
69589;SHT31;56792;50.644;17.984;2022-10-16T08:05:50;16.46;76.74
69589;SHT31;56792;50.644;17.984;2022-10-16T08:08:25;16.51;76.09
69589;SHT31;56792;50.644;17.984;2022-10-16T08:10:58;16.55;75.96
69589;SHT31;56792;50.644;17.984;2022-10-16T08:13:31;16.61;75.63
69589;SHT31;56792;50.644;17.984;2022-10-16T08:16:03;16.70;75.34
69589;SHT31;56792;50.644;17.984;2022-10-16T08:18:37;16.82;75.33
69589;SHT31;56792;50.644;17.984;2022-10-16T08:21:12;16.97;74.86
69589;SHT31;56792;50.644;17.984;2022-10-16T08:23:46;17.06;74.28
69589;SHT31;56792;50.644;17.984;2022-10-16T08:26:18;17.11;74.40
69589;SHT31;56792;50.644;17.984;2022-10-16T08:28:50;17.19;74.10
69589;SHT31;56792;50.644;17.984;2022-10-16T08:31:23;17.30;73.87
69589;SHT31;56792;50.644;17.984;2022-10-16T08:33:55;17.42;73.46
69589;SHT31;56792;50.644;17.984;2022-10-16T08:36:28;17.56;73.25
69589;SHT31;56792;50.644;17.984;2022-10-16T08:39:00;17.73;72.94
69589;SHT31;56792;50.644;17.984;2022-10-16T08:41:47;17.97;72.05
69589;SHT31;56792;50.644;17.984;2022-10-16T08:47:53;18.33;70.76
69589;SHT31;56792;50.644;17.984;2022-10-16T08:50:41;18.43;70.90
69589;SHT31;56792;50.644;17.984;2022-10-16T08:53:17;18.57;70.46
69589;SHT31;56792;50.644;17.984;2022-10-16T08:55:54;18.65;70.20
69589;SHT31;56792;50.644;17.984;2022-10-16T08:58:28;18.70;69.68
69589;SHT31;56792;50.644;17.984;2022-10-16T09:01:01;18.75;69.60
69589;SHT31;56792;50.644;17.984;2022-10-16T09:03:45;18.79;69.58
69589;SHT31;56792;50.644;17.984;2022-10-16T09:06:45;18.88;69.50
69589;SHT31;56792;50.644;17.984;2022-10-16T09:09:27;18.88;68.94
69589;SHT31;56792;50.644;17.984;2022-10-16T09:12:17;18.84;68.83
69589;SHT31;56792;50.644;17.984;2022-10-16T09:15:02;18.85;69.13
69589;SHT31;56792;50.644;17.984;2022-10-16T09:17:52;18.87;69.06
69589;SHT31;56792;50.644;17.984;2022-10-16T09:20:33;18.86;68.83
69589;SHT31;56792;50.644;17.984;2022-10-16T09:23:25;18.91;68.91
69589;SHT31;56792;50.644;17.984;2022-10-16T09:26:03;18.95;68.54
69589;SHT31;56792;50.644;17.984;2022-10-16T09:28:41;19.01;68.40
69589;SHT31;56792;50.644;17.984;2022-10-16T09:31:15;19.04;68.48
69589;SHT31;56792;50.644;17.984;2022-10-16T09:33:50;19.05;68.78
69589;SHT31;56792;50.644;17.984;2022-10-16T09:36:27;19.06;68.53
69589;SHT31;56792;50.644;17.984;2022-10-16T09:39:08;19.08;68.73
69589;SHT31;56792;50.644;17.984;2022-10-16T09:41:41;19.07;68.83
69589;SHT31;56792;50.644;17.984;2022-10-16T09:44:18;19.12;68.93
69589;SHT31;56792;50.644;17.984;2022-10-16T09:47:05;19.15;68.52
69589;SHT31;56792;50.644;17.984;2022-10-16T09:49:53;19.17;68.65
69589;SHT31;56792;50.644;17.984;2022-10-16T09:52:29;19.16;68.70
69589;SHT31;56792;50.644;17.984;2022-10-16T09:55:12;19.20;69.02
69589;SHT31;56792;50.644;17.984;2022-10-16T09:57:52;19.26;68.82
69589;SHT31;56792;50.644;17.984;2022-10-16T10:00:24;19.27;68.59
69589;SHT31;56792;50.644;17.984;2022-10-16T10:02:57;19.31;68.74
69589;SHT31;56792;50.644;17.984;2022-10-16T10:05:29;19.40;68.57
69589;SHT31;56792;50.644;17.984;2022-10-16T10:08:01;19.49;68.59
69589;SHT31;56792;50.644;17.984;2022-10-16T10:10:37;19.47;68.55
69589;SHT31;56792;50.644;17.984;2022-10-16T10:13:19;19.60;68.37
69589;SHT31;56792;50.644;17.984;2022-10-16T10:15:59;19.81;66.90
69589;SHT31;56792;50.644;17.984;2022-10-16T10:18:41;20.05;66.34
69589;SHT31;56792;50.644;17.984;2022-10-16T10:21:13;20.41;65.16
69589;SHT31;56792;50.644;17.984;2022-10-16T10:23:46;20.71;64.42
69589;SHT31;56792;50.644;17.984;2022-10-16T10:26:28;20.95;63.84
69589;SHT31;56792;50.644;17.984;2022-10-16T10:29:04;21.55;62.54
69589;SHT31;56792;50.644;17.984;2022-10-16T10:31:44;22.12;61.01
69589;SHT31;56792;50.644;17.984;2022-10-16T10:34:35;22.01;60.90
69589;SHT31;56792;50.644;17.984;2022-10-16T10:37:40;21.84;61.07
69589;SHT31;56792;50.644;17.984;2022-10-16T10:40:34;21.64;60.94
69589;SHT31;56792;50.644;17.984;2022-10-16T10:43:22;21.47;61.20
69589;SHT31;56792;50.644;17.984;2022-10-16T10:46:18;21.42;61.44
69589;SHT31;56792;50.644;17.984;2022-10-16T10:52:10;21.26;60.90
69589;SHT31;56792;50.644;17.984;2022-10-16T10:55:09;21.08;61.07
69589;SHT31;56792;50.644;17.984;2022-10-16T10:57:55;21.04;61.01
69589;SHT31;56792;50.644;17.984;2022-10-16T11:00:49;21.13;60.77
69589;SHT31;56792;50.644;17.984;2022-10-16T11:03:39;21.17;60.85
69589;SHT31;56792;50.644;17.984;2022-10-16T11:06:39;21.25;61.06
69589;SHT31;56792;50.644;17.984;2022-10-16T11:09:17;21.67;60.27
69589;SHT31;56792;50.644;17.984;2022-10-16T11:11:54;21.92;59.42
69589;SHT31;56792;50.644;17.984;2022-10-16T11:14:36;22.19;58.63
69589;SHT31;56792;50.644;17.984;2022-10-16T11:17:17;22.47;58.05
69589;SHT31;56792;50.644;17.984;2022-10-16T11:19:56;22.41;58.17
69589;SHT31;56792;50.644;17.984;2022-10-16T11:22:34;22.21;58.13
69589;SHT31;56792;50.644;17.984;2022-10-16T11:25:13;21.97;58.34
69589;SHT31;56792;50.644;17.984;2022-10-16T11:27:52;21.75;58.92
69589;SHT31;56792;50.644;17.984;2022-10-16T11:30:31;21.58;59.56
69589;SHT31;56792;50.644;17.984;2022-10-16T11:33:22;21.46;59.92
69589;SHT31;56792;50.644;17.984;2022-10-16T11:36:03;21.30;60.64
69589;SHT31;56792;50.644;17.984;2022-10-16T11:38:46;21.17;60.81
69589;SHT31;56792;50.644;17.984;2022-10-16T11:41:28;21.09;61.15
69589;SHT31;56792;50.644;17.984;2022-10-16T11:44:12;21.24;60.87
69589;SHT31;56792;50.644;17.984;2022-10-16T11:46:58;21.35;60.66
69589;SHT31;56792;50.644;17.984;2022-10-16T11:49:47;21.47;60.62
69589;SHT31;56792;50.644;17.984;2022-10-16T11:52:28;21.70;60.15
69589;SHT31;56792;50.644;17.984;2022-10-16T11:55:13;22.06;59.28
69589;SHT31;56792;50.644;17.984;2022-10-16T11:57:51;22.39;58.71
69589;SHT31;56792;50.644;17.984;2022-10-16T12:00:31;22.47;58.25
69589;SHT31;56792;50.644;17.984;2022-10-16T12:03:17;22.59;58.59
69589;SHT31;56792;50.644;17.984;2022-10-16T12:09:03;24.93;54.40
69589;SHT31;56792;50.644;17.984;2022-10-16T12:11:44;25.02;53.47
69589;SHT31;56792;50.644;17.984;2022-10-16T12:14:22;24.52;54.12
69589;SHT31;56792;50.644;17.984;2022-10-16T12:17:24;23.99;54.27
69589;SHT31;56792;50.644;17.984;2022-10-16T12:20:19;23.40;55.20
69589;SHT31;56792;50.644;17.984;2022-10-16T12:22:57;22.95;55.55
69589;SHT31;56792;50.644;17.984;2022-10-16T12:25:33;22.68;56.32
69589;SHT31;56792;50.644;17.984;2022-10-16T12:28:19;22.65;56.74
69589;SHT31;56792;50.644;17.984;2022-10-16T12:30:57;23.04;56.55
69589;SHT31;56792;50.644;17.984;2022-10-16T12:33:32;23.30;56.12
69589;SHT31;56792;50.644;17.984;2022-10-16T12:36:10;23.23;55.89
69589;SHT31;56792;50.644;17.984;2022-10-16T12:38:55;22.99;55.87
69589;SHT31;56792;50.644;17.984;2022-10-16T12:41:29;22.72;56.40
69589;SHT31;56792;50.644;17.984;2022-10-16T12:46:54;22.58;57.25
69589;SHT31;56792;50.644;17.984;2022-10-16T12:49:31;22.63;56.99
69589;SHT31;56792;50.644;17.984;2022-10-16T12:52:28;22.61;57.07
69589;SHT31;56792;50.644;17.984;2022-10-16T12:55:12;22.52;57.03
69589;SHT31;56792;50.644;17.984;2022-10-16T12:57:53;22.38;57.46
69589;SHT31;56792;50.644;17.984;2022-10-16T13:00:45;22.28;57.89
69589;SHT31;56792;50.644;17.984;2022-10-16T13:06:27;22.02;58.76
69589;SHT31;56792;50.644;17.984;2022-10-16T13:09:12;22.00;59.14
69589;SHT31;56792;50.644;17.984;2022-10-16T13:12:16;22.26;58.55
69589;SHT31;56792;50.644;17.984;2022-10-16T13:18:07;23.11;57.19
69589;SHT31;56792;50.644;17.984;2022-10-16T13:21:00;23.71;54.56
69589;SHT31;56792;50.644;17.984;2022-10-16T13:23:55;23.48;54.70
69589;SHT31;56792;50.644;17.984;2022-10-16T13:26:41;23.92;53.83
69589;SHT31;56792;50.644;17.984;2022-10-16T13:29:24;24.55;53.15
69589;SHT31;56792;50.644;17.984;2022-10-16T13:32:07;26.49;49.09
69589;SHT31;56792;50.644;17.984;2022-10-16T13:34:45;27.33;45.92
69589;SHT31;56792;50.644;17.984;2022-10-16T13:37:18;26.26;47.90
69589;SHT31;56792;50.644;17.984;2022-10-16T13:40:04;25.17;49.83
69589;SHT31;56792;50.644;17.984;2022-10-16T13:42:50;24.08;52.02
69589;SHT31;56792;50.644;17.984;2022-10-16T13:45:24;23.45;53.34
69589;SHT31;56792;50.644;17.984;2022-10-16T13:48:04;22.91;54.21
69589;SHT31;56792;50.644;17.984;2022-10-16T13:50:40;22.93;54.54
69589;SHT31;56792;50.644;17.984;2022-10-16T13:53:13;23.22;54.08
69589;SHT31;56792;50.644;17.984;2022-10-16T13:55:45;23.21;54.22
69589;SHT31;56792;50.644;17.984;2022-10-16T13:58:18;23.28;54.25
69589;SHT31;56792;50.644;17.984;2022-10-16T14:00:55;22.92;54.81
69589;SHT31;56792;50.644;17.984;2022-10-16T14:03:32;22.55;55.50
69589;SHT31;56792;50.644;17.984;2022-10-16T14:06:12;22.37;56.08
69589;SHT31;56792;50.644;17.984;2022-10-16T14:08:57;22.21;56.55
69589;SHT31;56792;50.644;17.984;2022-10-16T14:11:36;21.98;57.24
69589;SHT31;56792;50.644;17.984;2022-10-16T14:14:18;21.83;57.82
69589;SHT31;56792;50.644;17.984;2022-10-16T14:16:51;21.62;58.26
69589;SHT31;56792;50.644;17.984;2022-10-16T14:19:25;21.43;58.64
69589;SHT31;56792;50.644;17.984;2022-10-16T14:22:00;21.29;59.01
69589;SHT31;56792;50.644;17.984;2022-10-16T14:24:56;21.10;59.40
69589;SHT31;56792;50.644;17.984;2022-10-16T14:27:32;20.91;59.85
69589;SHT31;56792;50.644;17.984;2022-10-16T14:30:19;20.79;60.16
69589;SHT31;56792;50.644;17.984;2022-10-16T14:32:58;20.64;60.59
69589;SHT31;56792;50.644;17.984;2022-10-16T14:35:33;20.53;61.10
69589;SHT31;56792;50.644;17.984;2022-10-16T14:38:17;20.51;61.46
69589;SHT31;56792;50.644;17.984;2022-10-16T14:40:50;20.64;61.64
69589;SHT31;56792;50.644;17.984;2022-10-16T14:43:26;20.69;61.67
69589;SHT31;56792;50.644;17.984;2022-10-16T14:46:03;20.75;61.72
69589;SHT31;56792;50.644;17.984;2022-10-16T14:48:43;20.77;61.76
69589;SHT31;56792;50.644;17.984;2022-10-16T14:51:19;20.75;61.80
69589;SHT31;56792;50.644;17.984;2022-10-16T14:53:52;20.72;61.83
69589;SHT31;56792;50.644;17.984;2022-10-16T14:56:25;20.69;61.88
69589;SHT31;56792;50.644;17.984;2022-10-16T14:59:02;20.67;61.92
69589;SHT31;56792;50.644;17.984;2022-10-16T15:01:41;20.59;62.06
69589;SHT31;56792;50.644;17.984;2022-10-16T15:04:15;20.54;62.18
69589;SHT31;56792;50.644;17.984;2022-10-16T15:06:47;20.50;62.34
69589;SHT31;56792;50.644;17.984;2022-10-16T15:09:20;20.44;62.49
69589;SHT31;56792;50.644;17.984;2022-10-16T15:11:54;20.35;62.72
69589;SHT31;56792;50.644;17.984;2022-10-16T15:14:27;20.27;62.95
69589;SHT31;56792;50.644;17.984;2022-10-16T15:17:00;20.12;63.30
69589;SHT31;56792;50.644;17.984;2022-10-16T15:19:32;19.97;63.61
69589;SHT31;56792;50.644;17.984;2022-10-16T15:22:05;19.85;63.98
69589;SHT31;56792;50.644;17.984;2022-10-16T15:24:39;19.69;64.33
69589;SHT31;56792;50.644;17.984;2022-10-16T15:27:11;19.55;64.69
69589;SHT31;56792;50.644;17.984;2022-10-16T15:29:43;19.42;64.92
69589;SHT31;56792;50.644;17.984;2022-10-16T15:32:15;19.31;65.22
69589;SHT31;56792;50.644;17.984;2022-10-16T15:34:49;19.19;65.51
69589;SHT31;56792;50.644;17.984;2022-10-16T15:37:21;19.08;65.77
69589;SHT31;56792;50.644;17.984;2022-10-16T15:39:53;18.97;66.08
69589;SHT31;56792;50.644;17.984;2022-10-16T15:42:25;18.87;66.34
69589;SHT31;56792;50.644;17.984;2022-10-16T15:44:58;18.76;66.70
69589;SHT31;56792;50.644;17.984;2022-10-16T15:47:31;18.66;66.98
69589;SHT31;56792;50.644;17.984;2022-10-16T15:50:03;18.55;67.31
69589;SHT31;56792;50.644;17.984;2022-10-16T15:52:37;18.42;67.66
69589;SHT31;56792;50.644;17.984;2022-10-16T15:55:11;18.29;68.02
69589;SHT31;56792;50.644;17.984;2022-10-16T15:57:46;18.17;68.30
69589;SHT31;56792;50.644;17.984;2022-10-16T16:00:20;18.07;68.54
69589;SHT31;56792;50.644;17.984;2022-10-16T16:02:54;17.98;68.75
69589;SHT31;56792;50.644;17.984;2022-10-16T16:05:27;17.90;69.08
69589;SHT31;56792;50.644;17.984;2022-10-16T16:08:02;17.84;69.26
69589;SHT31;56792;50.644;17.984;2022-10-16T16:10:37;17.77;69.54
69589;SHT31;56792;50.644;17.984;2022-10-16T16:13:10;17.70;69.82
69589;SHT31;56792;50.644;17.984;2022-10-16T16:15:43;17.62;70.20
69589;SHT31;56792;50.644;17.984;2022-10-16T16:18:16;17.56;70.32
69589;SHT31;56792;50.644;17.984;2022-10-16T16:20:50;17.51;70.58
69589;SHT31;56792;50.644;17.984;2022-10-16T16:23:26;17.45;70.76
69589;SHT31;56792;50.644;17.984;2022-10-16T16:26:10;17.40;71.04
69589;SHT31;56792;50.644;17.984;2022-10-16T16:28:54;17.35;71.24
69589;SHT31;56792;50.644;17.984;2022-10-16T16:31:27;17.31;71.33
69589;SHT31;56792;50.644;17.984;2022-10-16T16:34:02;17.28;71.46